createdAt,value
2019-01-15T00:00:41.294Z,3.83
2019-01-15T00:01:45.635Z,4.20
2019-01-15T00:02:49.915Z,5.43
2019-01-15T00:03:54.186Z,4.47
2019-01-15T00:04:58.475Z,4.87
2019-01-15T00:06:02.747Z,4.20
2019-01-15T00:07:07.219Z,3.90
2019-01-15T00:08:11.532Z,4.17
2019-01-15T00:09:15.805Z,3.80
2019-01-15T00:10:20.160Z,4.57
2019-01-15T00:11:24.509Z,3.90
2019-01-15T00:12:28.864Z,4.00
2019-01-15T00:13:33.167Z,3.90
2019-01-15T00:14:37.477Z,3.80
2019-01-15T00:15:41.745Z,3.90
2019-01-15T00:16:46.027Z,3.70
2019-01-15T00:17:50.318Z,3.70
2019-01-15T00:18:54.634Z,4.40
2019-01-15T00:19:58.914Z,3.80
2019-01-15T00:21:03.325Z,3.77
2019-01-15T00:22:07.671Z,3.80
2019-01-15T00:23:11.938Z,4.43
2019-01-15T00:24:16.234Z,4.93
2019-01-15T00:25:20.498Z,4.57
2019-01-15T00:26:24.762Z,4.63
2019-01-15T00:27:29.029Z,4.90
2019-01-15T00:28:33.282Z,5.00
2019-01-15T00:29:37.554Z,4.60
2019-01-15T00:30:41.878Z,5.63
2019-01-15T00:31:46.165Z,4.47
2019-01-15T00:32:50.432Z,4.93
2019-01-15T00:33:54.732Z,4.03
2019-01-15T00:34:59.060Z,4.00
2019-01-15T00:36:03.395Z,4.30
2019-01-15T00:37:07.665Z,4.60
2019-01-15T00:38:12.075Z,4.20
2019-01-15T00:39:16.346Z,3.67
2019-01-15T00:40:20.686Z,3.80
2019-01-15T00:41:25.039Z,3.73
2019-01-15T00:42:29.319Z,4.10
2019-01-15T00:43:33.595Z,4.87
2019-01-15T00:44:37.886Z,4.00
2019-01-15T00:45:42.145Z,3.83
2019-01-15T00:46:46.406Z,4.77
2019-01-15T00:47:50.682Z,4.37
2019-01-15T00:48:54.959Z,4.73
2019-01-15T00:49:59.229Z,4.17
2019-01-15T00:51:03.567Z,4.13
2019-01-15T00:52:07.906Z,3.93
2019-01-15T00:53:12.177Z,4.30
2019-01-15T00:54:16.445Z,3.90
2019-01-15T00:55:20.713Z,3.77
2019-01-15T00:56:25.241Z,4.03
2019-01-15T00:57:29.510Z,3.90
2019-01-15T00:58:33.773Z,4.17
2019-01-15T00:59:38.123Z,3.93
2019-01-15T01:00:42.466Z,4.10
2019-01-15T01:01:46.733Z,3.60
2019-01-15T01:02:51.613Z,3.77
2019-01-15T01:03:56.058Z,5.70
2019-01-15T01:05:00.409Z,4.00
2019-01-15T01:06:04.938Z,3.30
2019-01-15T01:07:09.201Z,4.57
2019-01-15T01:08:13.466Z,3.50
2019-01-15T01:09:19.375Z,3.40
2019-01-15T01:10:23.866Z,4.60
2019-01-15T01:11:28.714Z,3.60
2019-01-15T01:12:32.981Z,4.50
2019-01-15T01:13:37.250Z,3.83
2019-01-15T01:14:41.522Z,3.60
2019-01-15T01:15:45.874Z,4.27
2019-01-15T01:16:50.145Z,3.87
2019-01-15T01:17:54.489Z,3.93
2019-01-15T01:18:58.754Z,3.70
2019-01-15T01:20:03.025Z,4.30
2019-01-15T01:21:07.375Z,4.17
2019-01-15T01:22:11.648Z,4.53
2019-01-15T01:23:15.985Z,4.23
2019-01-15T01:24:20.257Z,4.77
2019-01-15T01:25:24.518Z,3.73
2019-01-15T01:26:28.802Z,4.47
2019-01-15T01:27:33.062Z,4.50
2019-01-15T01:28:37.334Z,4.93
2019-01-15T01:29:41.604Z,3.57
2019-01-15T01:30:45.866Z,3.87
2019-01-15T01:31:50.210Z,3.97
2019-01-15T01:32:54.479Z,3.57
2019-01-15T01:33:58.740Z,4.13
2019-01-15T01:35:03.006Z,3.73
2019-01-15T01:36:07.337Z,3.73
2019-01-15T01:37:11.622Z,3.50
2019-01-15T01:38:15.886Z,3.53
2019-01-15T01:39:20.155Z,3.57
2019-01-15T01:40:25.133Z,3.73
2019-01-15T01:41:29.409Z,5.17
2019-01-15T01:42:33.676Z,4.23
2019-01-15T01:43:38.085Z,4.20
2019-01-15T01:44:42.349Z,3.57
2019-01-15T01:45:46.615Z,4.00
2019-01-15T01:46:50.892Z,4.43
2019-01-15T01:47:55.155Z,3.70
2019-01-15T01:48:59.426Z,3.60
2019-01-15T01:50:04.617Z,3.43
2019-01-15T01:51:08.970Z,4.27
2019-01-15T01:52:13.242Z,3.93
2019-01-15T01:53:17.582Z,3.73
2019-01-15T01:54:21.849Z,3.87
2019-01-15T01:55:26.114Z,4.10
2019-01-15T01:56:30.378Z,4.17
2019-01-15T01:57:34.664Z,4.07
2019-01-15T01:58:38.917Z,5.60
2019-01-15T01:59:43.183Z,4.50
2019-01-15T02:00:47.523Z,4.43
2019-01-15T02:01:51.795Z,3.83
2019-01-15T02:02:56.055Z,4.03
2019-01-15T02:04:00.402Z,4.47
2019-01-15T02:05:05.774Z,4.23
2019-01-15T02:06:10.038Z,3.80
2019-01-15T02:07:14.333Z,3.90
2019-01-15T02:08:18.641Z,4.67
2019-01-15T02:09:22.898Z,4.00
2019-01-15T02:10:27.198Z,4.90
2019-01-15T02:11:31.514Z,4.17
2019-01-15T02:12:36.962Z,4.13
2019-01-15T02:13:41.567Z,4.33
2019-01-15T02:14:45.985Z,4.00
2019-01-15T02:15:50.259Z,4.07
2019-01-15T02:16:54.595Z,3.70
2019-01-15T02:17:58.870Z,4.13
2019-01-15T02:19:03.151Z,3.70
2019-01-15T02:20:09.146Z,4.10
2019-01-15T02:21:13.427Z,3.73
2019-01-15T02:22:17.739Z,3.40
2019-01-15T02:23:22.007Z,3.93
2019-01-15T02:24:26.446Z,3.60
2019-01-15T02:25:30.712Z,4.50
2019-01-15T02:26:35.039Z,4.23
2019-01-15T02:27:41.600Z,4.63
2019-01-15T02:28:46.035Z,3.70
2019-01-15T02:29:50.278Z,4.70
2019-01-15T02:30:54.546Z,3.70
2019-01-15T02:31:58.788Z,4.83
2019-01-15T02:33:03.127Z,4.37
2019-01-15T02:34:07.393Z,3.17
2019-01-15T02:35:11.851Z,4.10
2019-01-15T02:36:16.185Z,4.50
2019-01-15T02:37:20.431Z,3.60
2019-01-15T02:38:24.702Z,3.58
2019-01-15T02:39:28.971Z,4.23
2019-01-15T02:40:33.225Z,3.77
2019-01-15T02:41:37.471Z,4.07
2019-01-15T02:42:46.386Z,3.63
2019-01-15T02:43:47.765Z,3.77
2019-01-15T02:44:52.028Z,4.10
2019-01-15T02:45:56.267Z,3.57
2019-01-15T02:47:00.525Z,3.77
2019-01-15T02:48:05.146Z,4.00
2019-01-15T02:49:09.431Z,3.60
2019-01-15T02:50:15.238Z,3.60
2019-01-15T02:51:19.568Z,4.03
2019-01-15T02:52:23.808Z,3.60
2019-01-15T02:53:28.070Z,3.73
2019-01-15T02:54:32.306Z,3.50
2019-01-15T02:55:36.570Z,3.57
2019-01-15T02:56:40.826Z,4.23
2019-01-15T02:57:45.099Z,3.43
2019-01-15T02:58:50.034Z,3.53
2019-01-15T02:59:54.324Z,3.43
2019-01-15T03:00:58.626Z,3.90
2019-01-15T03:02:03.065Z,4.73
2019-01-15T03:03:07.304Z,3.80
2019-01-15T03:04:11.654Z,3.52
2019-01-15T03:05:16.283Z,4.03
2019-01-15T03:06:20.626Z,3.53
2019-01-15T03:07:24.880Z,4.43
2019-01-15T03:08:29.139Z,3.63
2019-01-15T03:09:33.415Z,3.33
2019-01-15T03:10:37.657Z,4.27
2019-01-15T03:11:41.934Z,2.90
2019-01-15T03:12:54.751Z,3.50
2019-01-15T03:13:55.190Z,3.27
2019-01-15T03:14:59.577Z,3.90
2019-01-15T03:16:04.169Z,3.27
2019-01-15T03:17:08.423Z,3.30
2019-01-15T03:18:12.660Z,3.00
2019-01-15T03:19:16.930Z,3.40
2019-01-15T03:20:21.347Z,3.43
2019-01-15T03:21:25.611Z,3.70
2019-01-15T03:22:29.875Z,3.13
2019-01-15T03:23:34.139Z,3.63
2019-01-15T03:24:38.415Z,3.60
2019-01-15T03:25:42.653Z,3.83
2019-01-15T03:26:46.890Z,3.10
2019-01-15T03:27:51.216Z,3.37
2019-01-15T03:28:55.530Z,3.10
2019-01-15T03:29:59.810Z,3.37
2019-01-15T03:31:04.151Z,3.97
2019-01-15T03:32:08.417Z,3.50
2019-01-15T03:33:12.676Z,3.60
2019-01-15T03:34:16.943Z,3.53
2019-01-15T03:35:21.275Z,3.40
2019-01-15T03:36:25.554Z,3.10
2019-01-15T03:37:29.818Z,4.07
2019-01-15T03:38:34.056Z,4.43
2019-01-15T03:39:38.483Z,2.90
2019-01-15T03:40:42.845Z,3.40
2019-01-15T03:41:47.115Z,3.73
2019-01-15T03:42:52.126Z,3.03
2019-01-15T03:43:56.682Z,2.80
2019-01-15T03:45:00.963Z,3.37
2019-01-15T03:46:05.422Z,3.47
2019-01-15T03:47:09.759Z,3.63
2019-01-15T03:48:14.076Z,2.90
2019-01-15T03:49:19.357Z,3.20
2019-01-15T03:50:23.694Z,3.73
2019-01-15T03:51:27.943Z,3.00
2019-01-15T03:52:32.282Z,3.20
2019-01-15T03:53:36.524Z,3.40
2019-01-15T03:54:40.888Z,2.97
2019-01-15T03:55:45.126Z,3.07
2019-01-15T03:56:49.386Z,3.00
2019-01-15T03:57:53.790Z,3.40
2019-01-15T03:58:58.062Z,2.83
2019-01-15T04:00:02.397Z,3.40
2019-01-15T04:01:06.705Z,3.03
2019-01-15T04:02:11.635Z,4.97
2019-01-15T04:03:15.884Z,3.37
2019-01-15T04:04:20.184Z,3.50
2019-01-15T04:05:24.585Z,3.40
2019-01-15T04:06:28.833Z,2.60
2019-01-15T04:07:33.074Z,2.53
2019-01-15T04:08:37.338Z,3.30
2019-01-15T04:09:41.673Z,3.50
2019-01-15T04:10:45.922Z,3.10
2019-01-15T04:11:50.247Z,2.67
2019-01-15T04:12:54.493Z,3.08
2019-01-15T04:13:58.778Z,3.17
2019-01-15T04:15:03.231Z,3.10
2019-01-15T04:16:07.687Z,3.20
2019-01-15T04:17:11.931Z,2.77
2019-01-15T04:18:16.187Z,3.47
2019-01-15T04:19:20.554Z,2.60
2019-01-15T04:20:24.881Z,3.80
2019-01-15T04:21:29.122Z,3.40
2019-01-15T04:22:33.375Z,3.40
2019-01-15T04:23:37.614Z,3.40
2019-01-15T04:24:41.884Z,3.20
2019-01-15T04:25:46.212Z,2.77
2019-01-15T04:26:50.542Z,3.35
2019-01-15T04:27:54.874Z,3.22
2019-01-15T04:28:59.130Z,3.53
2019-01-15T04:30:03.816Z,2.87
2019-01-15T04:31:08.069Z,3.05
2019-01-15T04:32:12.328Z,3.30
2019-01-15T04:33:16.587Z,3.15
2019-01-15T04:34:20.844Z,3.45
2019-01-15T04:35:25.263Z,3.53
2019-01-15T04:36:29.514Z,2.60
2019-01-15T04:37:33.751Z,3.30
2019-01-15T04:38:38.001Z,3.57
2019-01-15T04:39:42.238Z,3.07
2019-01-15T04:40:46.578Z,3.07
2019-01-15T04:41:50.834Z,2.73
2019-01-15T04:42:55.088Z,2.87
2019-01-15T04:43:59.339Z,3.43
2019-01-15T04:45:03.980Z,3.13
2019-01-15T04:46:08.234Z,2.93
2019-01-15T04:47:12.474Z,2.67
2019-01-15T04:48:16.736Z,3.17
2019-01-15T04:49:20.979Z,2.83
2019-01-15T04:50:25.238Z,2.43
2019-01-15T04:51:29.498Z,3.20
2019-01-15T04:52:33.826Z,2.92
2019-01-15T04:53:38.080Z,2.33
2019-01-15T04:54:42.342Z,2.73
2019-01-15T04:55:46.603Z,3.23
2019-01-15T04:56:51.431Z,3.53
2019-01-15T04:57:55.680Z,2.63
2019-01-15T04:58:59.938Z,2.83
2019-01-15T05:00:05.831Z,2.90
2019-01-15T05:01:10.090Z,2.87
2019-01-15T05:02:14.336Z,2.57
2019-01-15T05:03:18.668Z,3.13
2019-01-15T05:04:22.926Z,2.93
2019-01-15T05:05:27.182Z,3.10
2019-01-15T05:06:31.461Z,3.17
2019-01-15T05:07:35.724Z,2.60
2019-01-15T05:08:39.979Z,2.80
2019-01-15T05:09:44.222Z,2.87
2019-01-15T05:10:48.471Z,2.83
2019-01-15T05:11:52.714Z,2.70
2019-01-15T05:12:56.959Z,2.70
2019-01-15T05:14:01.215Z,2.83
2019-01-15T05:15:07.122Z,3.20
2019-01-15T05:16:11.626Z,3.23
2019-01-15T05:17:15.869Z,2.70
2019-01-15T05:18:20.116Z,2.53
2019-01-15T05:19:24.363Z,3.07
2019-01-15T05:20:28.622Z,2.50
2019-01-15T05:21:32.870Z,2.87
2019-01-15T05:22:37.186Z,2.43
2019-01-15T05:23:41.435Z,2.70
2019-01-15T05:24:45.701Z,2.60
2019-01-15T05:25:49.962Z,2.93
2019-01-15T05:26:54.210Z,2.77
2019-01-15T05:27:58.451Z,2.47
2019-01-15T05:29:02.696Z,2.30
2019-01-15T05:30:10.187Z,2.70
2019-01-15T05:31:14.458Z,2.27
2019-01-15T05:32:18.783Z,2.37
2019-01-15T05:33:23.094Z,2.30
2019-01-15T05:34:27.346Z,3.10
2019-01-15T05:35:31.598Z,2.57
2019-01-15T05:36:35.854Z,2.53
2019-01-15T05:37:40.099Z,2.33
2019-01-15T05:38:44.373Z,2.47
2019-01-15T05:39:48.617Z,2.03
2019-01-15T05:40:52.882Z,2.27
2019-01-15T05:41:57.142Z,2.13
2019-01-15T05:43:01.456Z,2.27
2019-01-15T05:44:05.870Z,2.43
2019-01-15T05:45:13.874Z,2.37
2019-01-15T05:46:18.181Z,3.10
2019-01-15T05:47:24.316Z,2.23
2019-01-15T05:48:36.554Z,2.43
2019-01-15T05:49:40.810Z,2.33
2019-01-15T05:51:02.934Z,2.17
2019-01-15T05:52:07.191Z,2.70
2019-01-15T05:53:11.450Z,2.60
2019-01-15T05:54:15.698Z,2.50
2019-01-15T05:55:19.958Z,2.30
2019-01-15T05:56:24.591Z,2.30
2019-01-15T05:57:28.829Z,2.00
2019-01-15T05:58:33.070Z,2.60
2019-01-15T05:59:37.339Z,2.30
2019-01-15T06:00:41.583Z,2.33
2019-01-15T06:01:45.847Z,2.40
2019-01-15T06:02:51.021Z,2.43
2019-01-15T06:03:55.343Z,2.57
2019-01-15T06:04:59.590Z,2.37
2019-01-15T06:06:04.192Z,2.30
2019-01-15T06:07:08.518Z,3.07
2019-01-15T06:08:12.783Z,2.40
2019-01-15T06:09:17.034Z,2.37
2019-01-15T06:10:21.278Z,3.03
2019-01-15T06:11:25.538Z,2.83
2019-01-15T06:12:29.790Z,2.20
2019-01-15T06:13:34.038Z,2.50
2019-01-15T06:14:38.280Z,2.80
2019-01-15T06:15:42.535Z,2.60
2019-01-15T06:16:46.802Z,3.60
2019-01-15T06:17:51.042Z,2.83
2019-01-15T06:18:55.290Z,2.83
2019-01-15T06:19:59.534Z,2.80
2019-01-15T06:21:03.786Z,3.13
2019-01-15T06:22:08.048Z,2.70
2019-01-15T06:23:12.294Z,2.60
2019-01-15T06:24:16.537Z,3.17
2019-01-15T06:25:20.791Z,3.00
2019-01-15T06:26:25.053Z,2.80
2019-01-15T06:27:29.302Z,3.17
2019-01-15T06:28:33.830Z,2.67
2019-01-15T06:29:38.066Z,3.73
2019-01-15T06:30:42.323Z,3.03
2019-01-15T06:31:46.597Z,3.37
2019-01-15T06:32:51.003Z,2.97
2019-01-15T06:33:55.722Z,3.70
2019-01-15T06:34:59.982Z,3.30
2019-01-15T06:36:04.402Z,2.97
2019-01-15T06:37:08.671Z,3.87
2019-01-15T06:38:13.063Z,3.27
2019-01-15T06:39:17.312Z,3.47
2019-01-15T06:40:21.623Z,3.17
2019-01-15T06:41:25.954Z,3.90
2019-01-15T06:42:30.205Z,3.50
2019-01-15T06:43:34.559Z,3.40
2019-01-15T06:44:38.892Z,3.80
2019-01-15T06:45:43.139Z,3.63
2019-01-15T06:46:47.390Z,3.83
2019-01-15T06:47:51.707Z,3.70
2019-01-15T06:48:55.975Z,3.30
2019-01-15T06:50:00.260Z,3.80
2019-01-15T06:51:04.782Z,3.43
2019-01-15T06:52:09.193Z,3.57
2019-01-15T06:53:13.527Z,3.20
2019-01-15T06:54:17.854Z,3.50
2019-01-15T06:55:22.110Z,3.37
2019-01-15T06:56:26.356Z,3.33
2019-01-15T06:57:30.614Z,3.70
2019-01-15T06:58:34.862Z,4.13
2019-01-15T06:59:39.107Z,3.77
2019-01-15T07:00:43.372Z,3.73
2019-01-15T07:01:47.622Z,3.67
2019-01-15T07:02:51.955Z,3.47
2019-01-15T07:03:56.199Z,4.17
2019-01-15T07:05:00.665Z,3.77
2019-01-15T07:06:05.089Z,4.47
2019-01-15T07:07:09.406Z,3.87
2019-01-15T07:08:13.726Z,3.97
2019-01-15T07:09:17.970Z,3.80
2019-01-15T07:10:27.878Z,3.80
2019-01-15T07:11:32.190Z,4.23
2019-01-15T07:12:36.462Z,3.67
2019-01-15T07:13:40.714Z,4.03
2019-01-15T07:14:44.957Z,3.90
2019-01-15T07:15:50.854Z,3.80
2019-01-15T07:16:55.174Z,4.03
2019-01-15T07:17:59.430Z,3.70
2019-01-15T07:19:03.712Z,3.60
2019-01-15T07:20:09.090Z,3.93
2019-01-15T07:21:13.335Z,3.80
2019-01-15T07:22:17.602Z,3.83
2019-01-15T07:23:21.862Z,4.07
2019-01-15T07:24:26.108Z,3.90
2019-01-15T07:25:30.585Z,4.20
2019-01-15T07:26:34.822Z,3.73
2019-01-15T07:27:39.083Z,3.73
2019-01-15T07:28:43.326Z,5.23
2019-01-15T07:29:47.574Z,4.10
2019-01-15T07:30:54.139Z,4.20
2019-01-15T07:31:58.383Z,4.50
2019-01-15T07:33:02.647Z,4.10
2019-01-15T07:34:06.907Z,3.47
2019-01-15T07:35:11.230Z,4.40
2019-01-15T07:36:15.474Z,4.30
2019-01-15T07:37:19.722Z,3.70
2019-01-15T07:38:23.989Z,3.97
2019-01-15T07:39:28.231Z,4.13
2019-01-15T07:40:32.633Z,4.20
2019-01-15T07:41:37.239Z,4.47
2019-01-15T07:42:41.677Z,3.90
2019-01-15T07:43:45.938Z,3.93
2019-01-15T07:44:50.190Z,4.70
2019-01-15T07:45:54.438Z,4.33
2019-01-15T07:46:58.694Z,4.30
2019-01-15T07:48:03.025Z,3.70
2019-01-15T07:49:07.408Z,4.10
2019-01-15T07:50:14.638Z,4.60
2019-01-15T07:51:18.967Z,4.50
2019-01-15T07:52:23.287Z,4.17
2019-01-15T07:53:27.619Z,5.13
2019-01-15T07:54:31.861Z,4.40
2019-01-15T07:55:36.126Z,5.07
2019-01-15T07:56:40.370Z,4.40
2019-01-15T07:57:44.656Z,4.93
2019-01-15T07:58:48.887Z,4.93
2019-01-15T07:59:53.130Z,4.90
2019-01-15T08:00:57.466Z,4.80
2019-01-15T08:02:01.802Z,5.77
2019-01-15T08:03:06.222Z,5.47
2019-01-15T08:04:10.478Z,5.47
2019-01-15T08:05:15.681Z,5.03
2019-01-15T08:06:19.989Z,4.67
2019-01-15T08:07:24.230Z,5.20
2019-01-15T08:08:28.583Z,4.87
2019-01-15T08:09:32.829Z,5.17
2019-01-15T08:10:37.069Z,5.73
2019-01-15T08:11:41.330Z,5.57
2019-01-15T08:12:45.922Z,4.90
2019-01-15T08:13:50.170Z,4.70
2019-01-15T08:14:54.505Z,4.63
2019-01-15T08:15:58.886Z,5.03
2019-01-15T08:17:03.135Z,5.63
2019-01-15T08:18:07.390Z,6.13
2019-01-15T08:19:11.674Z,5.80
2019-01-15T08:20:16.110Z,6.30
2019-01-15T08:21:20.352Z,5.93
2019-01-15T08:22:24.594Z,6.63
2019-01-15T08:23:28.954Z,4.87
2019-01-15T08:24:33.194Z,5.43
2019-01-15T08:25:37.444Z,5.47
2019-01-15T08:26:41.690Z,5.43
2019-01-15T08:27:45.942Z,5.07
2019-01-15T08:28:50.206Z,5.13
2019-01-15T08:29:54.446Z,5.73
2019-01-15T08:30:58.690Z,6.37
2019-01-15T08:32:03.134Z,6.23
2019-01-15T08:33:07.517Z,5.93
2019-01-15T08:34:11.766Z,6.00
2019-01-15T08:35:16.081Z,6.00
2019-01-15T08:36:20.327Z,5.80
2019-01-15T08:37:24.562Z,5.57
2019-01-15T08:38:28.907Z,5.70
2019-01-15T08:39:33.141Z,5.73
2019-01-15T08:40:38.045Z,6.20
2019-01-15T08:41:42.290Z,6.07
2019-01-15T08:42:46.525Z,5.50
2019-01-15T08:43:50.860Z,5.60
2019-01-15T08:44:55.282Z,5.70
2019-01-15T08:45:59.541Z,4.90
2019-01-15T08:47:03.774Z,5.93
2019-01-15T08:48:21.657Z,6.20
2019-01-15T08:49:25.989Z,5.70
2019-01-15T08:50:30.490Z,6.00
2019-01-15T08:51:35.084Z,5.57
2019-01-15T08:52:39.402Z,5.60
2019-01-15T08:53:43.831Z,5.73
2019-01-15T08:54:48.184Z,5.87
2019-01-15T08:55:56.058Z,5.70
2019-01-15T08:57:00.458Z,5.63
2019-01-15T08:58:04.874Z,5.30
2019-01-15T08:59:09.141Z,5.80
2019-01-15T09:00:14.094Z,5.33
2019-01-15T09:01:18.339Z,6.87
2019-01-15T09:02:22.587Z,5.93
2019-01-15T09:03:26.834Z,6.27
2019-01-15T09:04:31.087Z,5.60
2019-01-15T09:05:35.386Z,6.73
2019-01-15T09:06:39.663Z,6.23
2019-01-15T09:07:43.974Z,6.40
2019-01-15T09:08:48.316Z,6.87
2019-01-15T09:09:52.553Z,6.33
2019-01-15T09:10:56.795Z,7.00
2019-01-15T09:12:01.107Z,7.03
2019-01-15T09:13:05.509Z,7.37
2019-01-15T09:14:09.780Z,7.57
2019-01-15T09:15:15.325Z,7.43
2019-01-15T09:16:19.730Z,7.27
2019-01-15T09:17:24.113Z,7.10
2019-01-15T09:18:28.858Z,7.40
2019-01-15T09:19:33.195Z,7.20
2019-01-15T09:20:37.507Z,7.97
2019-01-15T09:21:41.762Z,7.43
2019-01-15T09:22:46.218Z,7.63
2019-01-15T09:23:50.478Z,7.23
2019-01-15T09:24:54.717Z,7.63
2019-01-15T09:25:59.038Z,7.20
2019-01-15T09:27:03.914Z,7.40
2019-01-15T09:28:08.234Z,7.70
2019-01-15T09:29:12.502Z,7.33
2019-01-15T09:30:18.822Z,7.27
2019-01-15T09:31:23.079Z,7.33
2019-01-15T09:32:27.326Z,7.93
2019-01-15T09:33:31.569Z,7.43
2019-01-15T09:34:35.826Z,8.20
2019-01-15T09:35:40.082Z,7.83
2019-01-15T09:36:44.334Z,8.80
2019-01-15T09:37:50.031Z,8.10
2019-01-15T09:38:54.289Z,9.77
2019-01-15T09:39:58.542Z,9.63
2019-01-15T09:41:02.783Z,9.23
2019-01-15T09:42:07.106Z,10.63
2019-01-15T09:43:11.346Z,10.33
2019-01-15T09:44:15.606Z,10.63
2019-01-15T09:45:21.723Z,9.47
2019-01-15T09:46:25.965Z,10.13
2019-01-15T09:47:30.893Z,10.17
2019-01-15T09:48:36.821Z,10.73
2019-01-15T09:49:41.073Z,9.70
2019-01-15T09:50:45.334Z,10.03
2019-01-15T09:51:49.574Z,9.93
2019-01-15T09:52:53.927Z,10.93
2019-01-15T09:53:58.154Z,9.97
2019-01-15T09:55:02.404Z,10.43
2019-01-15T09:56:06.798Z,10.03
2019-01-15T09:57:11.066Z,10.30
2019-01-15T09:58:15.382Z,9.97
2019-01-15T09:59:19.629Z,10.07
2019-01-15T10:00:23.882Z,11.13
2019-01-15T10:01:28.142Z,10.43
2019-01-15T10:02:32.393Z,11.23
2019-01-15T10:03:36.650Z,10.73
2019-01-15T10:04:41.686Z,11.77
2019-01-15T10:05:45.935Z,11.33
2019-01-15T10:06:50.177Z,11.37
2019-01-15T10:07:54.428Z,11.90
2019-01-15T10:08:58.674Z,12.10
2019-01-15T10:10:03.215Z,11.70
2019-01-15T10:11:07.535Z,12.77
2019-01-15T10:12:11.786Z,12.07
2019-01-15T10:13:16.048Z,12.93
2019-01-15T10:14:20.293Z,12.70
2019-01-15T10:15:24.635Z,12.30
2019-01-15T10:16:28.959Z,11.93
2019-01-15T10:17:33.217Z,11.60
2019-01-15T10:18:37.449Z,12.20
2019-01-15T10:19:41.701Z,11.97
2019-01-15T10:20:45.963Z,11.70
2019-01-15T10:21:50.307Z,13.70
2019-01-15T10:22:54.631Z,12.53
2019-01-15T10:23:58.879Z,11.63
2019-01-15T10:25:03.206Z,12.70
2019-01-15T10:26:07.536Z,12.60
2019-01-15T10:27:12.357Z,11.90
2019-01-15T10:28:16.698Z,13.93
2019-01-15T10:29:22.258Z,12.97
2019-01-15T10:30:59.194Z,13.17
2019-01-15T10:32:36.382Z,12.57
2019-01-15T10:33:45.617Z,12.57
2019-01-15T10:34:49.646Z,13.37
2019-01-15T10:35:56.651Z,13.63
2019-01-15T10:36:59.646Z,13.47
2019-01-15T10:38:04.190Z,14.90
2019-01-15T10:39:11.657Z,14.73
2019-01-15T10:40:15.907Z,15.23
2019-01-15T10:41:20.170Z,14.83
2019-01-15T10:42:24.414Z,15.00
2019-01-15T10:43:30.518Z,15.57
2019-01-15T10:44:34.778Z,14.83
2019-01-15T10:45:39.122Z,15.23
2019-01-15T10:46:43.370Z,16.13
2019-01-15T10:47:47.621Z,14.77
2019-01-15T10:48:51.873Z,15.27
2019-01-15T10:49:56.120Z,15.60
2019-01-15T10:51:00.382Z,14.77
2019-01-15T10:52:04.978Z,14.93
2019-01-15T10:53:09.302Z,16.77
2019-01-15T10:54:13.550Z,15.83
2019-01-15T10:55:17.799Z,15.70
2019-01-15T10:56:22.058Z,15.50
2019-01-15T10:57:26.385Z,15.07
2019-01-15T10:58:30.629Z,15.87
2019-01-15T10:59:34.895Z,14.83
2019-01-15T11:00:39.133Z,15.33
2019-01-15T11:01:43.396Z,15.20
2019-01-15T11:02:47.646Z,14.90
2019-01-15T11:03:51.898Z,14.10
2019-01-15T11:04:56.158Z,15.70
2019-01-15T11:06:00.475Z,15.37
2019-01-15T11:07:05.039Z,15.97
2019-01-15T11:08:09.467Z,15.13
2019-01-15T11:09:13.720Z,13.93
2019-01-15T11:10:18.042Z,14.37
2019-01-15T11:11:22.318Z,13.67
2019-01-15T11:12:26.562Z,14.53
2019-01-15T11:13:30.814Z,14.77
2019-01-15T11:14:35.475Z,13.33
2019-01-15T11:15:43.427Z,14.00
2019-01-15T11:16:45.756Z,12.90
2019-01-15T11:17:50.010Z,13.07
2019-01-15T11:18:54.272Z,13.53
2019-01-15T11:19:58.526Z,13.30
2019-01-15T11:21:02.849Z,12.30
2019-01-15T11:22:07.114Z,13.03
2019-01-15T11:23:11.367Z,13.00
2019-01-15T11:24:15.627Z,12.53
2019-01-15T11:25:19.870Z,12.40
2019-01-15T11:26:24.214Z,11.30
2019-01-15T11:27:28.475Z,11.73
2019-01-15T11:28:32.732Z,11.57
2019-01-15T11:29:36.982Z,12.03
2019-01-15T11:30:41.234Z,12.40
2019-01-15T11:31:45.488Z,11.60
2019-01-15T11:32:49.742Z,13.07
2019-01-15T11:33:54.082Z,11.83
2019-01-15T11:34:58.341Z,12.27
2019-01-15T11:36:02.581Z,12.20
2019-01-15T11:37:06.830Z,11.80
2019-01-15T11:38:11.091Z,12.27
2019-01-15T11:39:15.342Z,12.17
2019-01-15T11:40:20.034Z,11.50
2019-01-15T11:41:24.287Z,11.87
2019-01-15T11:42:28.619Z,12.20
2019-01-15T11:43:32.862Z,12.30
2019-01-15T11:44:37.152Z,11.70
2019-01-15T11:45:41.523Z,11.07
2019-01-15T11:46:45.769Z,10.43
2019-01-15T11:47:50.597Z,11.77
2019-01-15T11:48:55.296Z,11.43
2019-01-15T11:49:59.553Z,10.03
2019-01-15T11:51:03.878Z,10.77
2019-01-15T11:52:08.194Z,11.17
2019-01-15T11:53:12.446Z,10.43
2019-01-15T11:54:16.694Z,11.07
2019-01-15T11:55:21.385Z,10.60
2019-01-15T11:56:25.830Z,10.50
2019-01-15T11:57:30.074Z,10.20
2019-01-15T11:58:34.510Z,9.97
2019-01-15T11:59:38.767Z,10.40
2019-01-15T12:00:50.258Z,9.67
2019-01-15T12:02:06.690Z,9.37
2019-01-15T12:03:33.214Z,9.67
2019-01-15T12:04:54.830Z,10.70
2019-01-15T12:06:16.925Z,10.20
2019-01-15T12:07:46.584Z,9.60
2019-01-15T12:09:04.899Z,9.43
2019-01-15T12:10:23.575Z,9.00
2019-01-15T12:11:38.340Z,8.97
2019-01-15T12:13:00.504Z,9.60
2019-01-15T12:14:42.183Z,9.20
2019-01-15T12:15:56.966Z,8.17
2019-01-15T12:17:18.937Z,8.47
2019-01-15T12:18:45.114Z,8.23
2019-01-15T12:19:58.510Z,8.57
2019-01-15T12:21:18.646Z,8.20
2019-01-15T12:22:48.017Z,10.07
2019-01-15T12:24:15.864Z,8.60
2019-01-15T12:25:38.808Z,7.87
2019-01-15T12:26:53.262Z,9.33
2019-01-15T12:28:19.378Z,9.23
2019-01-15T12:29:45.884Z,8.53
2019-01-15T12:31:07.506Z,7.63
2019-01-15T12:32:29.346Z,7.80
2019-01-15T12:33:51.603Z,8.33
2019-01-15T12:35:07.902Z,7.83
2019-01-15T12:36:34.284Z,7.90
2019-01-15T12:38:03.965Z,7.87
2019-01-15T12:39:42.942Z,8.83
2019-01-15T12:41:15.343Z,8.47
2019-01-15T12:42:47.334Z,8.43
2019-01-15T12:44:09.113Z,8.03
2019-01-15T12:45:32.313Z,8.10
2019-01-15T12:46:54.426Z,8.53
2019-01-15T12:48:19.058Z,8.77
2019-01-15T12:49:40.832Z,7.80
2019-01-15T12:51:19.487Z,8.07
2019-01-15T12:52:39.686Z,8.33
2019-01-15T12:54:01.455Z,8.10
2019-01-15T12:55:23.226Z,8.20
2019-01-15T12:56:46.575Z,8.37
2019-01-15T12:58:14.621Z,9.10
2019-01-15T12:59:36.499Z,9.87
2019-01-15T13:01:01.466Z,10.13
2019-01-15T13:02:23.254Z,9.90
2019-01-15T13:03:52.474Z,9.20
2019-01-15T13:05:05.715Z,8.80
2019-01-15T13:06:20.733Z,9.47
2019-01-15T13:07:54.890Z,9.50
2019-01-15T13:09:16.858Z,9.83
2019-01-15T13:10:38.872Z,10.00
2019-01-15T13:12:05.243Z,9.63
2019-01-15T13:13:27.118Z,9.03
2019-01-15T13:14:50.140Z,9.13
2019-01-15T13:16:07.100Z,8.80
2019-01-15T13:17:33.458Z,9.53
2019-01-15T13:18:51.807Z,9.70
2019-01-15T13:20:10.669Z,9.67
2019-01-15T13:21:36.787Z,8.67
2019-01-15T13:22:50.095Z,9.23
2019-01-15T13:24:25.335Z,9.30
2019-01-15T13:25:46.987Z,8.63
2019-01-15T13:27:13.494Z,8.20
2019-01-15T13:28:23.726Z,8.07
2019-01-15T13:29:45.546Z,8.43
2019-01-15T13:31:04.775Z,8.10
2019-01-15T13:32:26.596Z,8.50
2019-01-15T13:33:47.690Z,8.17
2019-01-15T13:35:16.534Z,8.27
2019-01-15T13:36:39.880Z,8.23
2019-01-15T13:38:03.298Z,8.23
2019-01-15T13:39:36.342Z,8.30
2019-01-15T13:40:52.132Z,8.27
2019-01-15T13:42:13.546Z,7.80
2019-01-15T13:43:35.339Z,8.43
2019-01-15T13:44:57.970Z,8.70
2019-01-15T13:46:21.322Z,8.37
2019-01-15T13:47:44.624Z,8.63
2019-01-15T13:49:16.554Z,8.47
2019-01-15T13:50:38.619Z,7.97
2019-01-15T13:52:00.478Z,8.40
2019-01-15T13:53:17.959Z,7.47
2019-01-15T13:54:32.870Z,8.20
2019-01-15T13:55:54.922Z,8.20
2019-01-15T13:57:27.329Z,8.30
2019-01-15T13:58:49.065Z,8.33
2019-01-15T14:00:08.082Z,7.80
2019-01-15T14:01:20.646Z,7.47
2019-01-15T14:02:42.598Z,8.17
2019-01-15T14:04:05.947Z,7.73
2019-01-15T14:05:38.606Z,7.40
2019-01-15T14:07:04.842Z,7.10
2019-01-15T14:08:24.798Z,6.93
2019-01-15T14:10:06.143Z,7.67
2019-01-15T14:11:32.222Z,6.70
2019-01-15T14:12:53.863Z,7.17
2019-01-15T14:14:20.056Z,7.13
2019-01-15T14:15:49.327Z,6.53
2019-01-15T14:17:15.579Z,7.20
2019-01-15T14:18:45.022Z,8.00
2019-01-15T14:20:10.703Z,7.07
2019-01-15T14:21:32.769Z,7.63
2019-01-15T14:23:08.401Z,7.00
2019-01-15T14:24:30.556Z,6.70
2019-01-15T14:25:51.611Z,7.50
2019-01-15T14:27:20.798Z,7.60
2019-01-15T14:28:32.477Z,7.60
2019-01-15T14:29:58.831Z,7.50
2019-01-15T14:31:11.822Z,7.47
2019-01-15T14:32:33.026Z,7.53
2019-01-15T14:33:54.925Z,7.70
2019-01-15T14:35:16.997Z,7.50
2019-01-15T14:36:34.350Z,7.90
2019-01-15T14:38:02.090Z,7.13
2019-01-15T14:39:31.526Z,6.97
2019-01-15T14:40:53.679Z,7.40
2019-01-15T14:42:29.178Z,7.00
2019-01-15T14:43:57.612Z,7.17
2019-01-15T14:45:31.698Z,7.10
2019-01-15T14:46:48.783Z,7.50
2019-01-15T14:48:21.659Z,7.73
2019-01-15T14:49:38.728Z,8.17
2019-01-15T14:51:03.194Z,7.37
2019-01-15T14:52:24.971Z,7.97
2019-01-15T14:53:38.282Z,8.70
2019-01-15T14:54:54.183Z,7.83